createdAt,value
2022-10-21T00:00:06.274Z,94.67
2022-10-21T00:02:28.514Z,94.32
2022-10-21T00:04:50.988Z,93.24
2022-10-21T00:07:13.296Z,94.05
2022-10-21T00:09:35.631Z,93.21
2022-10-21T00:11:57.960Z,93.19
2022-10-21T00:14:20.305Z,94.17
2022-10-21T00:16:42.644Z,94.19
2022-10-21T00:19:05.013Z,92.72
2022-10-21T00:21:27.364Z,93.35
2022-10-21T00:23:52.666Z,93.54
2022-10-21T00:26:15.356Z,92.75
2022-10-21T00:28:37.731Z,93.47
2022-10-21T00:31:00.112Z,93.37
2022-10-21T00:33:22.531Z,93.95
2022-10-21T00:35:57.449Z,93.91
2022-10-21T00:38:19.869Z,93.59
2022-10-21T00:40:42.194Z,93.57
2022-10-21T00:43:04.530Z,93.44
2022-10-21T00:45:28.906Z,92.83
2022-10-21T00:47:54.800Z,93.07
2022-10-21T00:50:41.735Z,92.77
2022-10-21T00:53:07.171Z,92.06
2022-10-21T00:55:33.754Z,92.31
2022-10-21T00:57:56.142Z,92.56
2022-10-21T01:00:18.531Z,92.25
2022-10-21T01:02:40.867Z,92.26
2022-10-21T01:05:03.815Z,92.15
2022-10-21T01:07:26.218Z,92.59
2022-10-21T01:09:48.521Z,92.08
2022-10-21T01:12:58.874Z,92.66
2022-10-21T01:15:36.109Z,91.83
2022-10-21T01:18:09.424Z,92.03
2022-10-21T01:21:08.854Z,92.37
2022-10-21T01:23:54.981Z,92.69
2022-10-21T01:26:49.013Z,92.87
2022-10-21T01:29:25.308Z,93.42
2022-10-21T01:32:02.950Z,93.03
2022-10-21T01:35:06.951Z,93.43
2022-10-21T01:37:57.780Z,92.81
2022-10-21T01:40:55.366Z,92.54
2022-10-21T01:43:43.643Z,92.49
2022-10-21T01:46:15.767Z,92.11
2022-10-21T01:48:42.117Z,91.25
2022-10-21T01:51:06.607Z,91.86
2022-10-21T01:53:40.486Z,92.71
2022-10-21T01:56:02.824Z,93.46
2022-10-21T01:58:28.922Z,93.42
2022-10-21T02:00:52.250Z,93.19
2022-10-21T02:03:27.081Z,93.79
2022-10-21T02:05:49.390Z,93.26
2022-10-21T02:08:11.743Z,92.22
2022-10-21T02:10:47.548Z,92.58
2022-10-21T02:13:11.831Z,92.26
2022-10-21T02:15:34.271Z,92.13
2022-10-21T02:18:03.083Z,92.71
2022-10-21T02:20:26.309Z,91.79
2022-10-21T02:22:48.697Z,92.06
2022-10-21T02:25:23.109Z,92.62
2022-10-21T02:27:45.497Z,92.39
2022-10-21T02:30:08.600Z,92.16
2022-10-21T02:33:11.493Z,92.86
2022-10-21T02:35:46.499Z,93.08
2022-10-21T02:38:13.938Z,92.28
2022-10-21T02:40:50.064Z,93.00
2022-10-21T02:43:34.218Z,92.80
2022-10-21T02:46:02.169Z,92.28
2022-10-21T02:48:24.492Z,91.88
2022-10-21T02:50:46.837Z,91.19
2022-10-21T02:53:09.694Z,91.46
2022-10-21T02:55:32.027Z,91.87
2022-10-21T02:57:54.410Z,91.63
2022-10-21T03:00:16.839Z,91.63
2022-10-21T03:02:39.172Z,90.95
2022-10-21T03:05:01.555Z,90.79
2022-10-21T03:07:23.889Z,91.40
2022-10-21T03:09:46.191Z,91.52
2022-10-21T03:12:08.521Z,91.68
2022-10-21T03:14:30.839Z,91.28
2022-10-21T03:16:53.156Z,91.62
2022-10-21T03:19:15.483Z,91.35
2022-10-21T03:21:37.826Z,91.69
2022-10-21T03:24:00.187Z,91.02
2022-10-21T03:26:22.605Z,91.12
2022-10-21T03:28:44.917Z,91.76
2022-10-21T03:31:08.127Z,91.98
2022-10-21T03:33:30.431Z,91.60
2022-10-21T03:35:52.831Z,92.07
2022-10-21T03:38:15.175Z,91.11
2022-10-21T03:40:37.517Z,91.41
2022-10-21T03:43:00.024Z,91.78
2022-10-21T03:45:22.515Z,91.83
2022-10-21T03:47:44.890Z,91.80
2022-10-21T03:50:11.845Z,92.22
2022-10-21T03:52:36.629Z,91.83
2022-10-21T03:54:59.208Z,92.06
2022-10-21T03:57:21.553Z,92.21
2022-10-21T03:59:43.878Z,92.98
2022-10-21T04:02:06.343Z,92.39
2022-10-21T04:04:28.753Z,92.84
2022-10-21T04:06:51.169Z,93.00
2022-10-21T04:09:13.598Z,91.86
2022-10-21T04:11:36.009Z,92.29
2022-10-21T04:13:58.350Z,93.16
2022-10-21T04:16:21.302Z,92.46
2022-10-21T04:18:43.651Z,93.17
2022-10-21T04:21:06.091Z,93.01
2022-10-21T04:23:28.517Z,93.21
2022-10-21T04:25:50.941Z,93.49
2022-10-21T04:28:13.269Z,93.06
2022-10-21T04:30:35.599Z,93.18
2022-10-21T04:32:57.946Z,93.40
2022-10-21T04:35:20.268Z,93.27
2022-10-21T04:37:22.396Z,93.15
2022-10-21T04:39:24.594Z,93.22
2022-10-21T04:41:26.771Z,93.43
2022-10-21T04:43:29.586Z,93.15
2022-10-21T04:45:31.680Z,93.38
2022-10-21T04:47:33.795Z,92.79
2022-10-21T04:49:35.939Z,93.48
2022-10-21T04:51:38.054Z,93.23
2022-10-21T04:53:40.214Z,92.83
2022-10-21T04:55:42.322Z,93.15
2022-10-21T04:57:44.519Z,93.37
2022-10-21T04:59:46.998Z,93.38
2022-10-21T05:01:49.132Z,93.17
2022-10-21T05:03:51.255Z,93.52
2022-10-21T05:05:53.555Z,93.85
2022-10-21T05:07:55.650Z,94.06
2022-10-21T05:09:57.726Z,93.70
2022-10-21T05:11:59.885Z,93.64
2022-10-21T05:14:02.108Z,93.79
2022-10-21T05:16:04.630Z,94.00
2022-10-21T05:18:06.739Z,94.26
2022-10-21T05:20:10.249Z,93.91
2022-10-21T05:22:12.830Z,93.83
2022-10-21T05:24:15.617Z,94.31
2022-10-21T05:26:17.755Z,94.33
2022-10-21T05:28:20.301Z,94.02
2022-10-21T05:30:22.382Z,93.39
2022-10-21T05:32:24.805Z,93.24
2022-10-21T05:34:26.906Z,93.86
2022-10-21T05:36:29.017Z,93.77
2022-10-21T05:38:31.265Z,93.97
2022-10-21T05:40:33.433Z,94.18
2022-10-21T05:42:35.776Z,94.23
2022-10-21T05:44:37.991Z,94.11
2022-10-21T05:46:40.100Z,93.94
2022-10-21T05:48:42.224Z,94.59
2022-10-21T05:50:45.869Z,94.11
2022-10-21T05:52:47.972Z,94.31
2022-10-21T05:54:50.082Z,93.79
2022-10-21T05:56:55.046Z,94.38
2022-10-21T05:58:57.161Z,94.12
2022-10-21T06:00:59.561Z,93.79
2022-10-21T06:03:01.708Z,94.77
2022-10-21T06:05:04.088Z,94.56
2022-10-21T06:07:06.287Z,94.65
2022-10-21T06:09:08.451Z,94.40
2022-10-21T06:11:16.655Z,94.54
2022-10-21T06:13:18.773Z,94.34
2022-10-21T06:15:20.933Z,93.89
2022-10-21T06:17:23.146Z,93.94
2022-10-21T06:19:25.327Z,93.64
2022-10-21T06:21:27.447Z,93.71
2022-10-21T06:23:29.547Z,94.19
2022-10-21T06:25:31.674Z,94.16
2022-10-21T06:27:33.846Z,94.16
2022-10-21T06:29:35.969Z,94.31
2022-10-21T06:31:38.079Z,94.24
2022-10-21T06:33:40.215Z,94.06
2022-10-21T06:35:42.302Z,93.55
2022-10-21T06:37:44.579Z,94.00
2022-10-21T06:39:46.765Z,94.23
2022-10-21T06:41:48.893Z,94.16
2022-10-21T06:43:51.014Z,94.13
2022-10-21T06:45:53.144Z,94.42
2022-10-21T06:47:55.245Z,94.37
2022-10-21T06:49:57.442Z,93.95
2022-10-21T06:51:59.542Z,93.92
2022-10-21T06:54:01.668Z,93.84
2022-10-21T06:56:09.128Z,93.94
2022-10-21T06:58:11.220Z,93.96
2022-10-21T07:00:13.950Z,93.86
2022-10-21T07:02:15.960Z,94.42
2022-10-21T07:04:18.018Z,94.56
2022-10-21T07:06:20.199Z,94.27
2022-10-21T07:08:22.535Z,94.21
2022-10-21T07:10:36.471Z,93.89
2022-10-21T07:12:38.674Z,94.00
2022-10-21T07:14:40.815Z,93.37
2022-10-21T07:16:43.001Z,93.82
2022-10-21T07:18:45.197Z,93.87
2022-10-21T07:20:47.308Z,94.02
2022-10-21T07:22:49.400Z,94.13
2022-10-21T07:24:51.613Z,93.58
2022-10-21T07:26:53.757Z,94.13
2022-10-21T07:28:58.166Z,93.72
2022-10-21T07:31:00.283Z,93.91
2022-10-21T07:33:02.361Z,93.77
2022-10-21T07:35:04.847Z,93.88
2022-10-21T07:37:07.039Z,93.66
2022-10-21T07:39:13.857Z,93.54
2022-10-21T07:41:37.279Z,93.72
2022-10-21T07:43:39.446Z,93.41
2022-10-21T07:45:42.518Z,93.69
2022-10-21T07:47:44.614Z,92.93
2022-10-21T07:49:46.731Z,93.51
2022-10-21T07:51:50.560Z,93.00
2022-10-21T07:53:55.027Z,92.84
2022-10-21T07:56:10.920Z,92.52
2022-10-21T07:58:13.083Z,91.98
2022-10-21T08:00:15.243Z,92.17
2022-10-21T08:02:17.414Z,92.09
2022-10-21T08:04:21.997Z,92.45
2022-10-21T08:06:25.206Z,91.71
2022-10-21T08:08:27.778Z,91.16
2022-10-21T08:10:29.860Z,92.28
2022-10-21T08:12:31.988Z,91.02
2022-10-21T08:14:34.567Z,91.03
2022-10-21T08:16:36.899Z,91.18
2022-10-21T08:18:39.008Z,91.46
2022-10-21T08:20:43.404Z,91.70
2022-10-21T08:22:45.523Z,91.52
2022-10-21T08:24:47.622Z,91.32
2022-10-21T08:26:51.050Z,90.98
2022-10-21T08:28:53.215Z,90.63
2022-10-21T08:31:15.500Z,90.37
2022-10-21T08:33:17.663Z,89.96
2022-10-21T08:35:19.781Z,90.13
2022-10-21T08:37:24.925Z,89.87
2022-10-21T08:39:29.140Z,90.41
2022-10-21T08:41:31.187Z,90.05
2022-10-21T08:43:34.418Z,89.95
2022-10-21T08:46:01.778Z,89.92
2022-10-21T08:48:05.867Z,89.76
2022-10-21T08:50:15.789Z,90.12
2022-10-21T08:52:22.289Z,90.13
2022-10-21T08:55:00.242Z,90.18
2022-10-21T08:57:03.194Z,90.02
2022-10-21T08:59:20.776Z,89.68
2022-10-21T09:01:39.619Z,89.64
2022-10-21T09:03:55.203Z,89.16
2022-10-21T09:06:36.249Z,88.85
2022-10-21T09:09:07.983Z,88.82
2022-10-21T09:11:24.803Z,88.61
2022-10-21T09:13:46.801Z,88.40
2022-10-21T09:16:09.576Z,88.44
2022-10-21T09:18:56.014Z,88.46
2022-10-21T09:21:22.613Z,88.32
2022-10-21T09:23:46.956Z,87.60
2022-10-21T09:26:17.453Z,87.84
2022-10-21T09:28:19.569Z,87.68
2022-10-21T09:30:22.991Z,87.22
2022-10-21T09:34:47.669Z,85.91
2022-10-21T09:36:50.301Z,85.85
2022-10-21T09:39:00.280Z,85.92
2022-10-21T09:41:03.736Z,86.03
2022-10-21T09:43:05.946Z,86.39
2022-10-21T09:45:22.298Z,85.88
2022-10-21T09:47:24.843Z,85.89
2022-10-21T09:49:54.718Z,85.91
2022-10-21T09:51:52.751Z,85.90
2022-10-21T09:53:57.880Z,85.50
2022-10-21T09:56:05.230Z,85.31
2022-10-21T09:58:07.317Z,85.50
2022-10-21T10:00:12.830Z,85.49
2022-10-21T10:02:16.202Z,85.88
2022-10-21T10:04:31.124Z,86.12
2022-10-21T10:06:38.950Z,85.80
2022-10-21T10:08:47.614Z,85.92
2022-10-21T10:10:49.908Z,86.00
2022-10-21T10:12:58.710Z,85.71
2022-10-21T10:15:29.351Z,85.89
2022-10-21T10:17:51.972Z,85.71
2022-10-21T10:20:19.823Z,85.86
2022-10-21T10:22:45.843Z,85.59
2022-10-21T10:25:11.728Z,85.21
2022-10-21T10:27:34.150Z,84.90
2022-10-21T10:29:56.955Z,84.46
2022-10-21T10:32:19.338Z,84.26
2022-10-21T10:34:53.674Z,84.01
2022-10-21T10:37:26.140Z,84.06
2022-10-21T10:39:51.560Z,84.54
2022-10-21T10:42:28.819Z,83.90
2022-10-21T10:44:59.879Z,83.92
2022-10-21T10:47:42.042Z,83.47
2022-10-21T10:50:04.689Z,83.17
2022-10-21T10:52:27.151Z,83.26
2022-10-21T10:55:12.664Z,82.86
2022-10-21T10:57:44.349Z,82.89
2022-10-21T11:00:20.200Z,82.50
2022-10-21T11:02:49.778Z,82.39
2022-10-21T11:05:38.433Z,82.16
2022-10-21T11:08:17.842Z,82.18
2022-10-21T11:10:54.388Z,81.66
2022-10-21T11:13:19.514Z,81.71
2022-10-21T11:15:53.650Z,81.22
2022-10-21T11:19:15.417Z,80.90
2022-10-21T11:21:46.282Z,80.86
2022-10-21T11:24:40.711Z,80.94
2022-10-21T11:27:21.927Z,80.11
2022-10-21T11:30:11.867Z,80.04
2022-10-21T11:33:11.217Z,79.22
2022-10-21T11:36:24.423Z,78.52
2022-10-21T11:39:27.120Z,77.88
2022-10-21T11:42:11.846Z,77.40
2022-10-21T11:45:17.465Z,77.17
2022-10-21T11:48:09.369Z,76.27
2022-10-21T11:50:38.718Z,76.27
2022-10-21T11:53:36.759Z,75.97
2022-10-21T11:56:25.246Z,77.04
2022-10-21T12:02:43.171Z,75.48
2022-10-21T12:05:33.874Z,75.49
2022-10-21T12:08:32.327Z,74.51
2022-10-21T12:11:13.779Z,75.10
2022-10-21T12:13:46.799Z,75.83
2022-10-21T12:16:17.643Z,76.06
2022-10-21T12:18:51.326Z,75.23
2022-10-21T12:21:24.099Z,75.55
2022-10-21T12:23:48.000Z,76.22
2022-10-21T12:26:32.334Z,75.44
2022-10-21T12:29:44.077Z,75.01
2022-10-21T12:32:11.503Z,75.41
2022-10-21T12:34:33.920Z,75.96
2022-10-21T12:36:56.768Z,75.95
2022-10-21T12:39:34.699Z,74.98
2022-10-21T12:42:13.608Z,75.36
2022-10-21T12:44:36.516Z,75.86
2022-10-21T12:50:31.328Z,74.59
2022-10-21T12:53:24.764Z,74.47
2022-10-21T12:56:01.962Z,75.05
2022-10-21T12:58:44.958Z,74.29
2022-10-21T13:01:29.211Z,74.53
2022-10-21T13:03:53.109Z,74.84
2022-10-21T13:06:15.566Z,75.04
2022-10-21T13:08:52.632Z,74.21
2022-10-21T13:11:24.922Z,74.50
2022-10-21T13:13:48.101Z,75.04
2022-10-21T13:16:19.209Z,74.80
2022-10-21T13:19:15.603Z,74.72
2022-10-21T13:21:47.598Z,74.90
2022-10-21T13:24:13.367Z,75.42
2022-10-21T13:26:35.708Z,75.58
2022-10-21T13:29:04.361Z,75.48
2022-10-21T13:31:26.851Z,75.70
2022-10-21T13:33:52.623Z,75.71
2022-10-21T13:36:15.342Z,75.70
2022-10-21T13:38:47.229Z,75.59
2022-10-21T13:41:29.477Z,75.65
2022-10-21T13:44:03.487Z,76.16
2022-10-21T13:46:31.108Z,76.93
2022-10-21T13:48:53.767Z,77.08
2022-10-21T13:51:28.679Z,77.13
2022-10-21T13:53:58.314Z,77.58
2022-10-21T13:56:32.458Z,77.91
2022-10-21T13:58:54.938Z,78.04
2022-10-21T14:01:39.827Z,77.87
2022-10-21T14:04:15.126Z,78.63
2022-10-21T14:06:39.170Z,78.82
2022-10-21T14:09:04.348Z,78.73
2022-10-21T14:11:33.484Z,79.26
2022-10-21T14:14:02.333Z,78.99
2022-10-21T14:16:38.796Z,79.37
2022-10-21T14:19:11.610Z,79.56
2022-10-21T14:21:38.276Z,79.48
2022-10-21T14:24:00.646Z,79.60
2022-10-21T14:26:23.073Z,79.87
2022-10-21T14:28:45.785Z,79.69
2022-10-21T14:31:11.989Z,79.63
2022-10-21T14:33:34.622Z,79.83
2022-10-21T14:36:19.825Z,80.57
2022-10-21T14:39:03.773Z,80.09
2022-10-21T14:41:37.347Z,80.74
2022-10-21T14:44:25.417Z,80.68
2022-10-21T14:46:50.063Z,80.49
2022-10-21T14:49:41.974Z,80.65
2022-10-21T14:52:06.829Z,80.70
2022-10-21T14:54:47.533Z,80.92
2022-10-21T14:57:42.750Z,81.24
2022-10-21T15:00:07.267Z,81.04
2022-10-21T15:02:33.457Z,81.19
2022-10-21T15:04:58.139Z,80.85
2022-10-21T15:07:39.238Z,81.38
2022-10-21T15:10:04.584Z,81.24
2022-10-21T15:12:26.972Z,80.84
2022-10-21T15:14:49.323Z,81.52
2022-10-21T15:17:14.331Z,81.82
2022-10-21T15:19:45.154Z,81.76
2022-10-21T15:22:15.474Z,81.25
2022-10-21T15:24:44.359Z,82.21
2022-10-21T15:27:06.760Z,81.62
2022-10-21T15:29:37.784Z,82.45
2022-10-21T15:32:00.742Z,81.95
2022-10-21T15:34:23.105Z,81.96
2022-10-21T15:36:45.587Z,82.78
2022-10-21T15:39:09.428Z,82.62
2022-10-21T15:41:32.094Z,82.71
2022-10-21T15:44:02.350Z,83.17
2022-10-21T15:46:28.911Z,83.00
2022-10-21T15:48:51.296Z,82.97
2022-10-21T15:51:13.792Z,83.02
2022-10-21T15:53:38.689Z,83.86
2022-10-21T15:56:03.438Z,83.54
2022-10-21T15:58:25.895Z,83.98
2022-10-21T16:00:48.297Z,84.37
2022-10-21T16:03:10.682Z,84.21
2022-10-21T16:05:33.048Z,84.80
2022-10-21T16:07:55.555Z,84.29
2022-10-21T16:10:27.822Z,84.74
2022-10-21T16:12:50.197Z,84.26
2022-10-21T16:15:12.826Z,84.61
2022-10-21T16:17:35.343Z,84.70
2022-10-21T16:19:57.700Z,85.65
2022-10-21T16:22:22.026Z,85.55
2022-10-21T16:24:44.449Z,85.37
2022-10-21T16:27:11.868Z,85.43
2022-10-21T16:29:34.251Z,85.29
2022-10-21T16:31:56.626Z,86.19
2022-10-21T16:34:19.558Z,86.25
2022-10-21T16:36:41.950Z,86.27
2022-10-21T16:39:16.195Z,86.73
2022-10-21T16:41:38.643Z,86.38
2022-10-21T16:44:01.185Z,86.68
2022-10-21T16:46:32.846Z,87.00
2022-10-21T16:48:55.179Z,86.44
2022-10-21T16:51:17.858Z,87.59
2022-10-21T16:53:40.473Z,87.50
2022-10-21T16:56:03.710Z,87.32
2022-10-21T16:58:26.099Z,88.35
2022-10-21T17:00:48.818Z,87.65
2022-10-21T17:03:12.117Z,88.09
2022-10-21T17:08:01.801Z,89.10
2022-10-21T17:10:24.134Z,88.30
2022-10-21T17:12:46.455Z,88.47
2022-10-21T17:15:09.610Z,88.19
2022-10-21T17:17:32.103Z,88.81
2022-10-21T17:19:54.439Z,88.32
2022-10-21T17:22:17.213Z,88.38
2022-10-21T17:24:39.555Z,89.81
2022-10-21T17:27:01.945Z,89.38
2022-10-21T17:29:24.431Z,89.56
2022-10-21T17:31:46.796Z,89.30
2022-10-21T17:34:21.333Z,89.64
2022-10-21T17:36:43.721Z,89.43
2022-10-21T17:39:06.128Z,90.33
2022-10-21T17:41:28.518Z,89.29
2022-10-21T17:43:50.900Z,89.73
2022-10-21T17:46:22.603Z,91.31
2022-10-21T17:48:45.844Z,90.08
2022-10-21T17:51:09.089Z,91.58
2022-10-21T17:53:31.477Z,91.09
2022-10-21T17:56:04.890Z,90.34
2022-10-21T17:58:27.838Z,90.29
2022-10-21T18:00:50.289Z,90.38
2022-10-21T18:03:12.763Z,90.32
2022-10-21T18:05:35.223Z,90.05
2022-10-21T18:07:57.547Z,91.27
2022-10-21T18:10:20.176Z,91.10
2022-10-21T18:12:42.719Z,90.99
2022-10-21T18:15:05.744Z,90.38
2022-10-21T18:17:28.079Z,91.10
2022-10-21T18:19:51.399Z,90.36
2022-10-21T18:22:13.979Z,91.98
2022-10-21T18:24:36.374Z,90.48
2022-10-21T18:26:58.675Z,90.72
2022-10-21T18:29:22.283Z,91.19
2022-10-21T18:31:44.613Z,90.00
2022-10-21T18:34:09.313Z,91.33
2022-10-21T18:36:32.067Z,90.86
2022-10-21T18:38:54.536Z,91.52
2022-10-21T18:41:20.558Z,90.87
2022-10-21T18:43:53.144Z,91.67
2022-10-21T18:46:15.501Z,91.60
2022-10-21T18:48:37.853Z,91.75
2022-10-21T18:51:08.217Z,91.80
2022-10-21T18:53:30.815Z,91.00
2022-10-21T18:55:53.172Z,91.10
2022-10-21T18:58:15.545Z,92.09
2022-10-21T19:00:37.996Z,91.26
2022-10-21T19:03:00.360Z,92.25
2022-10-21T19:05:24.341Z,92.14
2022-10-21T19:07:46.768Z,91.55
2022-10-21T19:10:09.242Z,91.51
2022-10-21T19:12:31.629Z,92.57
2022-10-21T19:14:54.025Z,91.72
2022-10-21T19:17:16.565Z,91.57
2022-10-21T19:19:39.643Z,92.59
2022-10-21T19:22:02.149Z,91.45
2022-10-21T19:24:24.668Z,91.65
2022-10-21T19:26:52.292Z,91.97
2022-10-21T19:29:16.696Z,91.93
2022-10-21T19:31:39.957Z,91.84
2022-10-21T19:34:02.235Z,93.42
2022-10-21T19:36:24.681Z,92.15
2022-10-21T19:38:47.038Z,92.08
2022-10-21T19:41:11.256Z,92.32
2022-10-21T19:43:33.658Z,91.35
2022-10-21T19:45:57.465Z,91.86
2022-10-21T19:48:21.154Z,91.88
2022-10-21T19:50:47.923Z,92.09
2022-10-21T19:53:10.256Z,92.10
2022-10-21T19:55:33.120Z,92.40
2022-10-21T19:57:55.466Z,91.87
2022-10-21T20:00:17.890Z,92.26
2022-10-21T20:02:42.797Z,91.76
2022-10-21T20:05:05.650Z,91.76
2022-10-21T20:07:28.052Z,91.83
2022-10-21T20:09:50.400Z,92.15
2022-10-21T20:12:12.713Z,92.64
2022-10-21T20:14:35.067Z,92.28
2022-10-21T20:16:57.380Z,91.89
2022-10-21T20:19:19.718Z,92.43
2022-10-21T20:21:42.310Z,92.17
2022-10-21T20:24:05.178Z,92.30
2022-10-21T20:26:28.827Z,93.35
2022-10-21T20:28:51.694Z,92.99
2022-10-21T20:31:15.430Z,93.25
2022-10-21T20:33:43.212Z,92.16
2022-10-21T20:36:16.982Z,93.18
2022-10-21T20:38:39.471Z,92.65
2022-10-21T20:41:07.241Z,92.01
2022-10-21T20:43:30.134Z,92.09
2022-10-21T20:45:52.539Z,92.05
2022-10-21T20:48:14.910Z,92.42
2022-10-21T20:50:37.380Z,92.36
2022-10-21T20:52:59.932Z,92.51
2022-10-21T20:55:22.284Z,92.16
2022-10-21T20:57:44.692Z,92.12
2022-10-21T21:00:07.859Z,91.94
2022-10-21T21:02:30.201Z,92.60
2022-10-21T21:04:52.586Z,92.22
2022-10-21T21:07:14.981Z,92.48
2022-10-21T21:10:01.066Z,92.59
2022-10-21T21:12:19.662Z,92.86
2022-10-21T21:14:42.005Z,92.19
2022-10-21T21:17:04.417Z,92.01
2022-10-21T21:19:26.881Z,91.87
2022-10-21T21:21:49.363Z,92.82
2022-10-21T21:24:11.914Z,92.18
2022-10-21T21:26:38.656Z,92.27
2022-10-21T21:29:01.416Z,92.29
2022-10-21T21:31:25.333Z,92.32
2022-10-21T21:33:48.001Z,92.60
2022-10-21T21:35:50.144Z,91.79
2022-10-21T21:37:52.273Z,92.90
2022-10-21T21:39:54.433Z,93.46
2022-10-21T21:41:56.555Z,92.15
2022-10-21T21:43:58.776Z,94.01
2022-10-21T21:46:01.063Z,93.92
2022-10-21T21:48:03.353Z,93.48
2022-10-21T21:50:06.124Z,93.42
2022-10-21T21:52:08.173Z,94.70
2022-10-21T21:54:10.960Z,93.94
2022-10-21T21:56:13.118Z,94.37
2022-10-21T21:58:34.307Z,94.96
2022-10-21T22:00:57.322Z,94.41
2022-10-21T22:03:21.599Z,94.53
2022-10-21T22:05:44.156Z,94.62
2022-10-21T22:08:06.659Z,94.55
2022-10-21T22:10:29.099Z,96.23
2022-10-21T22:12:51.596Z,95.07
2022-10-21T22:15:35.739Z,95.11
2022-10-21T22:17:56.551Z,95.44
2022-10-21T22:20:19.314Z,94.72
2022-10-21T22:22:41.753Z,95.30
2022-10-21T22:25:11.581Z,94.87
2022-10-21T22:27:33.961Z,94.78
2022-10-21T22:29:56.621Z,95.03
2022-10-21T22:32:19.041Z,94.87
2022-10-21T22:34:41.590Z,94.79
2022-10-21T22:37:03.974Z,94.83
2022-10-21T22:39:26.445Z,95.71
2022-10-21T22:41:48.840Z,95.63
2022-10-21T22:44:12.327Z,95.86
2022-10-21T22:46:35.041Z,95.20
2022-10-21T22:48:57.616Z,95.50
2022-10-21T22:51:20.583Z,95.40
2022-10-21T22:53:42.954Z,95.44
2022-10-21T22:56:05.435Z,95.68
2022-10-21T22:58:28.207Z,95.72
2022-10-21T23:00:50.808Z,95.51
2022-10-21T23:03:13.471Z,95.36
2022-10-21T23:05:35.852Z,95.53
2022-10-21T23:07:58.157Z,96.11
2022-10-21T23:10:20.520Z,95.52
2022-10-21T23:12:43.103Z,95.95
2022-10-21T23:15:06.676Z,97.03
2022-10-21T23:17:29.053Z,97.47
2022-10-21T23:19:52.340Z,97.62
2022-10-21T23:22:14.980Z,98.24
2022-10-21T23:24:37.687Z,97.51
2022-10-21T23:27:01.401Z,97.83
2022-10-21T23:29:23.946Z,97.49
2022-10-21T23:31:46.368Z,96.36
2022-10-21T23:34:09.521Z,97.70
2022-10-21T23:36:33.252Z,97.48
2022-10-21T23:38:56.375Z,96.94
2022-10-21T23:41:18.808Z,97.26
2022-10-21T23:43:41.162Z,97.36
2022-10-21T23:46:03.547Z,96.97
2022-10-21T23:48:26.034Z,96.96
2022-10-21T23:50:48.856Z,97.33
2022-10-21T23:53:11.244Z,97.40
2022-10-21T23:57:57.498Z,97.73
